createdAt,value
2022-12-19T00:01:43.581Z,-3.35
2022-12-19T00:04:51.188Z,-3.37
2022-12-19T00:07:56.435Z,-3.39
2022-12-19T00:11:04.218Z,-3.29
2022-12-19T00:14:09.670Z,-3.44
2022-12-19T00:17:14.640Z,-3.37
2022-12-19T00:20:22.132Z,-3.39
2022-12-19T00:23:27.045Z,-3.28
2022-12-19T00:26:33.427Z,-3.33
2022-12-19T00:29:38.368Z,-3.22
2022-12-19T00:32:43.241Z,-3.20
2022-12-19T00:35:50.679Z,-3.28
2022-12-19T00:38:56.873Z,-3.24
2022-12-19T00:42:01.677Z,-3.31
2022-12-19T00:45:07.027Z,-3.21
2022-12-19T00:48:11.848Z,-3.21
2022-12-19T00:51:23.776Z,-3.14
2022-12-19T00:54:29.112Z,-3.14
2022-12-19T00:57:34.417Z,-3.26
2022-12-19T01:00:39.317Z,-3.18
2022-12-19T01:04:11.296Z,-3.19
2022-12-19T01:07:14.904Z,-3.13
2022-12-19T01:10:19.964Z,-3.13
2022-12-19T01:13:23.407Z,-3.10
2022-12-19T01:16:28.373Z,-3.04
2022-12-19T01:19:33.265Z,-3.00
2022-12-19T01:22:40.780Z,-3.14
2022-12-19T01:25:51.413Z,-3.09
2022-12-19T01:28:56.229Z,-2.97
2022-12-19T01:32:01.155Z,-3.05
2022-12-19T01:35:06.599Z,-2.94
2022-12-19T01:38:19.415Z,-3.02
2022-12-19T01:41:24.246Z,-2.95
2022-12-19T01:44:29.529Z,-3.09
2022-12-19T01:47:36.104Z,-3.00
2022-12-19T01:50:48.150Z,-2.93
2022-12-19T01:54:10.732Z,-2.95
2022-12-19T01:57:18.542Z,-2.95
2022-12-19T02:00:23.742Z,-2.92
2022-12-19T02:03:31.487Z,-2.85
2022-12-19T02:06:37.914Z,-2.90
2022-12-19T02:09:47.159Z,-2.90
2022-12-19T02:12:55.585Z,-2.92
2022-12-19T02:16:11.223Z,-2.83
2022-12-19T02:19:51.119Z,-2.92
2022-12-19T02:23:15.281Z,-2.97
2022-12-19T02:26:47.984Z,-3.02
2022-12-19T02:30:11.891Z,-2.87
2022-12-19T02:33:24.156Z,-2.89
2022-12-19T02:36:38.992Z,-2.98
2022-12-19T02:39:51.876Z,-2.89
2022-12-19T02:43:02.455Z,-2.79
2022-12-19T02:46:09.346Z,-2.78
2022-12-19T02:49:20.999Z,-2.78
2022-12-19T02:52:49.029Z,-2.81
2022-12-19T02:56:03.562Z,-3.00
2022-12-19T02:59:25.989Z,-2.90
2022-12-19T03:02:37.731Z,-2.79
2022-12-19T03:05:56.369Z,-2.82
2022-12-19T03:09:11.232Z,-2.84
2022-12-19T03:12:23.799Z,-2.74
2022-12-19T03:15:30.594Z,-2.64
2022-12-19T03:18:36.708Z,-2.73
2022-12-19T03:21:47.071Z,-2.74
2022-12-19T03:24:51.905Z,-2.73
2022-12-19T03:27:59.566Z,-2.78
2022-12-19T03:31:06.467Z,-2.73
2022-12-19T03:34:16.806Z,-2.47
2022-12-19T03:37:28.273Z,-2.74
2022-12-19T03:40:37.738Z,-2.70
2022-12-19T03:43:42.837Z,-2.74
2022-12-19T03:46:55.930Z,-2.68
2022-12-19T03:50:01.018Z,-2.52
2022-12-19T03:53:18.742Z,-2.55
2022-12-19T03:56:34.008Z,-2.50
2022-12-19T03:59:43.887Z,-2.59
2022-12-19T04:02:52.771Z,-2.49
2022-12-19T04:05:58.965Z,-2.59
2022-12-19T04:09:07.118Z,-2.60
2022-12-19T04:12:16.754Z,-2.46
2022-12-19T04:15:27.078Z,-2.58
2022-12-19T04:18:33.214Z,-2.67
2022-12-19T04:21:44.182Z,-2.55
2022-12-19T04:24:55.595Z,-2.51
2022-12-19T04:28:04.778Z,-2.47
2022-12-19T04:31:11.001Z,-2.51
2022-12-19T04:34:15.949Z,-2.54
2022-12-19T04:37:20.952Z,-2.40
2022-12-19T04:40:28.701Z,-2.54
2022-12-19T04:43:33.570Z,-2.44
2022-12-19T04:46:38.431Z,-2.44
2022-12-19T04:49:43.271Z,-2.38
2022-12-19T04:52:48.243Z,-2.35
2022-12-19T04:56:03.358Z,-2.43
2022-12-19T04:59:08.236Z,-2.35
2022-12-19T05:02:13.212Z,-2.36
2022-12-19T05:05:19.093Z,-2.30
2022-12-19T05:08:23.968Z,-2.41
2022-12-19T05:11:31.516Z,-2.42
2022-12-19T05:14:36.589Z,-2.43
2022-12-19T05:17:41.444Z,-2.36
2022-12-19T05:20:46.365Z,-2.29
2022-12-19T05:23:52.210Z,-2.35
2022-12-19T05:26:59.636Z,-2.28
2022-12-19T05:30:04.492Z,-2.31
2022-12-19T05:33:09.468Z,-2.36
2022-12-19T05:36:15.563Z,-2.29
2022-12-19T05:39:20.426Z,-2.36
2022-12-19T05:42:28.878Z,-2.32
2022-12-19T05:45:33.708Z,-2.17
2022-12-19T05:48:39.307Z,-2.13
2022-12-19T05:51:44.097Z,-2.18
2022-12-19T05:54:48.955Z,-2.26
2022-12-19T05:57:56.512Z,-2.25
2022-12-19T06:01:05.565Z,-2.27
2022-12-19T06:04:10.683Z,-2.14
2022-12-19T06:07:20.732Z,-2.34
2022-12-19T06:10:26.240Z,-2.28
2022-12-19T06:13:36.800Z,-2.24
2022-12-19T06:16:41.671Z,-2.35
2022-12-19T06:19:47.300Z,-2.38
2022-12-19T06:22:52.153Z,-2.23
2022-12-19T06:26:00.300Z,-2.17
2022-12-19T06:29:07.793Z,-2.19
2022-12-19T06:32:12.916Z,-2.21
2022-12-19T06:35:17.932Z,-2.17
2022-12-19T06:38:22.801Z,-2.08
2022-12-19T06:41:40.627Z,-2.01
2022-12-19T06:44:48.121Z,-2.17
2022-12-19T06:47:53.008Z,-2.10
2022-12-19T06:50:58.123Z,-2.04
2022-12-19T06:54:03.316Z,-1.93
2022-12-19T06:57:08.221Z,-2.03
2022-12-19T07:00:17.212Z,-2.01
2022-12-19T07:03:25.894Z,-2.05
2022-12-19T07:06:31.522Z,-1.95
2022-12-19T07:09:37.619Z,-2.01
2022-12-19T07:12:42.426Z,-2.09
2022-12-19T07:15:50.519Z,-2.02
2022-12-19T07:18:55.414Z,-2.00
2022-12-19T07:22:01.902Z,-1.99
2022-12-19T07:25:08.921Z,-2.02
2022-12-19T07:28:13.970Z,-1.94
2022-12-19T07:31:21.427Z,-1.92
2022-12-19T07:34:26.308Z,-1.83
2022-12-19T07:37:31.175Z,-1.83
2022-12-19T07:40:36.596Z,-1.75
2022-12-19T07:43:41.429Z,-1.71
2022-12-19T07:46:49.062Z,-1.78
2022-12-19T07:49:54.095Z,-1.75
2022-12-19T07:53:00.040Z,-1.73
2022-12-19T07:56:04.963Z,-1.63
2022-12-19T07:59:10.107Z,-1.57
2022-12-19T08:02:17.651Z,-1.57
2022-12-19T08:05:23.174Z,-1.67
2022-12-19T08:08:28.074Z,-1.59
2022-12-19T08:11:33.015Z,-1.53
2022-12-19T08:14:37.807Z,-1.62
2022-12-19T08:17:45.295Z,-1.61
2022-12-19T08:20:50.121Z,-1.43
2022-12-19T08:23:54.923Z,-1.27
2022-12-19T08:26:59.940Z,-1.25
2022-12-19T08:30:04.928Z,-1.29
2022-12-19T08:33:12.574Z,-1.19
2022-12-19T08:36:19.142Z,-1.10
2022-12-19T08:39:24.011Z,-1.27
2022-12-19T08:42:28.830Z,-1.32
2022-12-19T08:45:33.728Z,-1.30
2022-12-19T08:48:41.143Z,-1.39
2022-12-19T08:51:46.061Z,-1.39
2022-12-19T08:54:51.214Z,-1.17
2022-12-19T08:57:56.131Z,-1.15
2022-12-19T09:01:05.486Z,-1.24
2022-12-19T09:05:28.503Z,-0.88
2022-12-19T09:07:39.990Z,-0.99
2022-12-19T09:10:44.895Z,-0.79
2022-12-19T09:13:51.763Z,-0.90
2022-12-19T09:16:56.645Z,-1.09
2022-12-19T09:20:06.989Z,-0.86
2022-12-19T09:23:11.796Z,-1.12
2022-12-19T09:26:17.228Z,-1.02
2022-12-19T09:29:22.477Z,-0.93
2022-12-19T09:32:27.429Z,-0.89
2022-12-19T09:35:34.875Z,-0.66
2022-12-19T09:38:39.692Z,-0.66
2022-12-19T09:42:08.442Z,-0.68
2022-12-19T09:45:31.559Z,-0.47
2022-12-19T09:48:38.108Z,-0.36
2022-12-19T09:51:52.851Z,-0.05
2022-12-19T09:55:04.949Z,-0.22
2022-12-19T09:58:16.280Z,0.13
2022-12-19T10:01:25.274Z,-0.08
2022-12-19T10:04:33.190Z,0.15
2022-12-19T10:08:05.452Z,-0.29
2022-12-19T10:12:39.024Z,-0.30
2022-12-19T10:14:50.965Z,-0.09
2022-12-19T10:18:18.856Z,0.10
2022-12-19T10:22:17.247Z,-0.11
2022-12-19T10:25:18.924Z,-0.10
2022-12-19T10:28:48.216Z,0.14
2022-12-19T10:32:01.202Z,0.10
2022-12-19T10:35:15.677Z,0.20
2022-12-19T10:38:27.397Z,-0.21
2022-12-19T10:41:40.726Z,-0.20
2022-12-19T10:44:50.599Z,-0.03
2022-12-19T10:48:00.388Z,0.37
2022-12-19T10:51:06.692Z,0.53
2022-12-19T10:54:12.645Z,0.23
2022-12-19T10:57:28.373Z,0.34
2022-12-19T11:00:33.331Z,0.81
2022-12-19T11:03:38.962Z,0.30
2022-12-19T11:06:52.958Z,0.31
2022-12-19T11:10:05.321Z,0.40
2022-12-19T11:20:38.196Z,0.59
2022-12-19T11:24:42.809Z,0.37
2022-12-19T11:29:30.352Z,0.89
2022-12-19T11:29:39.637Z,0.82
2022-12-19T11:29:46.979Z,0.48
2022-12-19T11:34:35.781Z,1.17
2022-12-19T11:37:46.818Z,0.67
2022-12-19T11:40:55.605Z,0.67
2022-12-19T11:44:04.890Z,0.33
2022-12-19T11:47:24.776Z,0.50
2022-12-19T11:50:32.931Z,0.46
2022-12-19T11:53:48.867Z,0.59
2022-12-19T11:56:53.750Z,0.64
2022-12-19T12:00:04.628Z,0.55
2022-12-19T12:03:32.173Z,0.61
2022-12-19T12:06:45.299Z,1.00
2022-12-19T12:13:17.277Z,0.88
2022-12-19T12:22:14.676Z,0.73
2022-12-19T12:30:05.550Z,0.80
2022-12-19T12:31:23.085Z,0.52
2022-12-19T12:31:38.991Z,0.60
2022-12-19T12:31:52.361Z,0.60
2022-12-19T12:35:42.531Z,0.48
2022-12-19T12:39:06.933Z,0.14
2022-12-19T12:42:26.135Z,0.06
2022-12-19T12:45:38.029Z,0.20
2022-12-19T12:48:50.464Z,0.18
2022-12-19T12:51:56.282Z,0.14
2022-12-19T12:55:06.075Z,0.50
2022-12-19T12:58:48.810Z,0.63
2022-12-19T13:02:00.288Z,0.39
2022-12-19T13:05:26.663Z,0.45
2022-12-19T13:08:42.717Z,0.50
2022-12-19T13:12:06.055Z,0.81
2022-12-19T13:15:43.249Z,1.10
2022-12-19T13:19:11.534Z,0.74
2022-12-19T13:22:44.023Z,0.80
2022-12-19T13:25:53.166Z,0.90
2022-12-19T13:29:29.680Z,0.88
2022-12-19T13:32:56.413Z,1.12
2022-12-19T13:39:49.476Z,0.92
2022-12-19T13:39:59.187Z,1.13
2022-12-19T13:43:18.362Z,1.10
2022-12-19T13:46:41.687Z,1.31
2022-12-19T13:49:47.511Z,1.12
2022-12-19T13:52:53.009Z,0.85
2022-12-19T13:55:59.109Z,1.06
2022-12-19T13:59:07.676Z,0.81
2022-12-19T14:02:20.945Z,0.90
2022-12-19T14:06:15.153Z,0.93
2022-12-19T14:11:26.223Z,0.67
2022-12-19T14:13:48.268Z,0.52
2022-12-19T14:16:08.905Z,0.60
2022-12-19T14:19:24.564Z,0.71
2022-12-19T14:22:29.410Z,0.74
2022-12-19T14:28:20.205Z,0.79
2022-12-19T14:29:08.557Z,0.82
2022-12-19T14:33:39.551Z,0.60
2022-12-19T14:36:08.442Z,0.69
2022-12-19T14:39:28.460Z,0.52
2022-12-19T14:43:56.815Z,0.41
2022-12-19T14:54:01.754Z,0.45
2022-12-19T14:54:12.044Z,0.34
2022-12-19T14:54:41.912Z,0.32
2022-12-19T14:56:59.919Z,0.28
2022-12-19T15:01:09.680Z,0.22
2022-12-19T15:04:47.812Z,0.21
2022-12-19T15:07:24.853Z,0.16
2022-12-19T15:11:04.352Z,0.18
2022-12-19T15:14:53.854Z,0.19
2022-12-19T15:17:28.629Z,0.21
2022-12-19T15:20:33.514Z,0.22
2022-12-19T15:23:38.466Z,0.24
2022-12-19T15:26:50.335Z,0.22
2022-12-19T15:29:55.237Z,0.21
2022-12-19T15:33:00.055Z,0.15
2022-12-19T15:36:04.940Z,0.10
2022-12-19T15:39:09.760Z,0.12
2022-12-19T15:42:23.351Z,0.10
2022-12-19T15:45:28.495Z,0.02
2022-12-19T15:48:33.360Z,-0.08
2022-12-19T15:51:38.518Z,0.04
2022-12-19T15:54:51.217Z,-0.01
2022-12-19T15:58:02.928Z,-0.04
2022-12-19T16:01:08.108Z,-0.04
2022-12-19T16:04:16.459Z,-0.13
2022-12-19T16:07:25.456Z,-0.15
2022-12-19T16:10:30.486Z,-0.15
2022-12-19T16:13:38.193Z,-0.13
2022-12-19T16:16:43.515Z,-0.15
2022-12-19T16:19:48.714Z,-0.28
2022-12-19T16:22:53.966Z,-0.23
2022-12-19T16:26:00.105Z,-0.12
2022-12-19T16:29:08.217Z,-0.14
2022-12-19T16:32:14.835Z,-0.18
2022-12-19T16:35:40.182Z,-0.21
2022-12-19T16:38:45.976Z,-0.18
2022-12-19T16:41:50.894Z,-0.19
2022-12-19T16:44:58.418Z,-0.23
2022-12-19T16:48:03.438Z,-0.19
2022-12-19T16:51:08.511Z,-0.23
2022-12-19T16:54:15.851Z,-0.23
2022-12-19T16:57:23.932Z,-0.44
2022-12-19T17:00:31.412Z,-0.38
2022-12-19T17:03:42.009Z,-0.53
2022-12-19T17:06:47.337Z,-0.64
2022-12-19T17:09:52.331Z,-0.74
2022-12-19T17:12:58.557Z,-0.69
2022-12-19T17:16:07.622Z,-0.74
2022-12-19T17:19:18.138Z,-0.90
2022-12-19T17:22:23.587Z,-0.77
2022-12-19T17:25:30.395Z,-0.67
2022-12-19T17:28:35.344Z,-0.67
2022-12-19T17:31:43.339Z,-0.86
2022-12-19T17:34:48.217Z,-0.74
2022-12-19T17:37:55.407Z,-0.75
2022-12-19T17:41:00.523Z,-0.84
2022-12-19T17:44:05.331Z,-0.83
2022-12-19T17:47:16.210Z,-0.82
2022-12-19T17:50:26.721Z,-0.80
2022-12-19T17:53:31.618Z,-0.80
2022-12-19T17:56:36.481Z,-0.99
2022-12-19T17:59:41.934Z,-1.09
2022-12-19T18:02:51.664Z,-1.03
2022-12-19T18:05:58.378Z,-1.10
2022-12-19T18:09:03.813Z,-1.21
2022-12-19T18:12:09.482Z,-0.96
2022-12-19T18:15:14.737Z,-1.04
2022-12-19T18:18:30.594Z,-1.28
2022-12-19T18:21:35.966Z,-1.30
2022-12-19T18:24:40.860Z,-1.37
2022-12-19T18:27:46.033Z,-1.25
2022-12-19T18:30:52.639Z,-1.29
2022-12-19T18:34:07.392Z,-1.30
2022-12-19T18:37:17.382Z,-1.35
2022-12-19T18:40:31.156Z,-1.36
2022-12-19T18:43:36.634Z,-1.42
2022-12-19T18:46:41.711Z,-1.33
2022-12-19T18:49:49.315Z,-1.40
2022-12-19T18:52:56.074Z,-1.35
2022-12-19T18:56:01.022Z,-1.51
2022-12-19T18:59:05.931Z,-1.57
2022-12-19T19:02:27.782Z,-1.55
2022-12-19T19:05:38.697Z,-1.37
2022-12-19T19:08:43.622Z,-1.31
2022-12-19T19:11:48.666Z,-1.51
2022-12-19T19:14:56.711Z,-1.38
2022-12-19T19:18:03.818Z,-1.51
2022-12-19T19:21:14.859Z,-1.37
2022-12-19T19:24:23.757Z,-1.59
2022-12-19T19:27:28.558Z,-1.45
2022-12-19T19:30:34.491Z,-1.55
2022-12-19T19:33:42.700Z,-1.66
2022-12-19T19:36:54.970Z,-1.69
2022-12-19T19:39:59.877Z,-1.56
2022-12-19T19:43:04.777Z,-1.54
2022-12-19T19:46:09.818Z,-1.65
2022-12-19T19:49:15.694Z,-1.67
2022-12-19T19:52:23.301Z,-1.60
2022-12-19T19:55:28.880Z,-1.75
2022-12-19T19:58:34.002Z,-1.81
2022-12-19T20:01:38.971Z,-1.96
2022-12-19T20:04:44.097Z,-1.86
2022-12-19T20:07:51.590Z,-1.90
2022-12-19T20:10:58.215Z,-1.93
2022-12-19T20:14:04.932Z,-2.02
2022-12-19T20:17:09.944Z,-2.04
2022-12-19T20:20:15.945Z,-2.04
2022-12-19T20:23:23.412Z,-1.94
2022-12-19T20:26:28.566Z,-2.00
2022-12-19T20:29:33.388Z,-2.05
2022-12-19T20:32:38.248Z,-1.95
2022-12-19T20:35:43.180Z,-1.90
2022-12-19T20:38:51.815Z,-1.97
2022-12-19T20:41:57.606Z,-2.01
2022-12-19T20:45:02.692Z,-2.09
2022-12-19T20:48:07.828Z,-2.06
2022-12-19T20:51:12.909Z,-2.11
2022-12-19T20:54:20.264Z,-2.07
2022-12-19T20:57:25.207Z,-2.04
2022-12-19T21:00:30.692Z,-1.96
2022-12-19T21:03:35.828Z,-2.01
2022-12-19T21:06:41.512Z,-2.19
2022-12-19T21:09:51.052Z,-2.03
2022-12-19T21:12:56.507Z,-2.09
2022-12-19T21:16:03.487Z,-2.11
2022-12-19T21:19:08.859Z,-2.09
2022-12-19T21:22:13.943Z,-2.06
2022-12-19T21:25:21.947Z,-1.99
2022-12-19T21:28:27.470Z,-2.14
2022-12-19T21:31:33.373Z,-1.97
2022-12-19T21:34:38.391Z,-1.89
2022-12-19T21:37:44.486Z,-2.19
2022-12-19T21:40:52.118Z,-2.15
2022-12-19T21:43:58.040Z,-2.11
2022-12-19T21:47:03.209Z,-2.16
2022-12-19T21:50:09.293Z,-2.09
2022-12-19T21:53:14.232Z,-2.14
2022-12-19T21:56:27.077Z,-2.08
2022-12-19T21:59:32.016Z,-2.11
2022-12-19T22:02:37.703Z,-2.17
2022-12-19T22:05:42.935Z,-2.05
2022-12-19T22:08:48.432Z,-1.93
2022-12-19T22:11:55.871Z,-1.94
2022-12-19T22:15:00.685Z,-1.92
2022-12-19T22:18:05.550Z,-1.92
2022-12-19T22:21:12.075Z,-1.84
2022-12-19T22:24:20.139Z,-1.93
2022-12-19T22:27:28.004Z,-2.12
2022-12-19T22:30:35.987Z,-2.07
2022-12-19T22:33:40.799Z,-1.92
2022-12-19T22:36:47.288Z,-2.01
2022-12-19T22:39:52.069Z,-2.02
2022-12-19T22:42:59.517Z,-2.02
2022-12-19T22:46:04.464Z,-2.04
2022-12-19T22:49:11.203Z,-1.87
2022-12-19T22:52:16.018Z,-1.97
2022-12-19T22:55:21.419Z,-2.01
2022-12-19T22:58:28.846Z,-1.87
2022-12-19T23:01:35.691Z,-1.98
2022-12-19T23:04:40.619Z,-1.92
2022-12-19T23:07:45.602Z,-2.07
2022-12-19T23:10:53.303Z,-2.00
2022-12-19T23:14:01.161Z,-2.11
2022-12-19T23:17:06.068Z,-2.22
2022-12-19T23:20:12.277Z,-2.23
2022-12-19T23:23:17.229Z,-2.03
2022-12-19T23:26:23.982Z,-1.99
2022-12-19T23:29:31.522Z,-1.90
2022-12-19T23:32:36.436Z,-2.03
2022-12-19T23:35:41.339Z,-1.91
2022-12-19T23:38:46.236Z,-1.92
2022-12-19T23:41:51.128Z,-2.00
2022-12-19T23:44:58.779Z,-1.94
2022-12-19T23:48:03.641Z,-1.81
2022-12-19T23:51:11.737Z,-1.98
2022-12-19T23:54:16.809Z,-2.05
2022-12-19T23:57:22.183Z,-1.77
